createdAt,value
2018-09-01T00:01:08.265Z,99.90
2018-09-01T00:03:37.551Z,99.90
2018-09-01T00:06:06.846Z,99.90
2018-09-01T00:08:36.274Z,99.90
2018-09-01T00:11:05.484Z,99.90
2018-09-01T00:13:34.618Z,99.90
2018-09-01T00:16:03.868Z,99.90
2018-09-01T00:18:32.996Z,99.90
2018-09-01T00:21:02.340Z,99.90
2018-09-01T00:23:31.504Z,99.90
2018-09-01T00:26:01.045Z,99.90
2018-09-01T00:28:30.161Z,99.90
2018-09-01T00:30:59.449Z,99.90
2018-09-01T00:33:28.645Z,99.90
2018-09-01T00:35:57.962Z,99.90
2018-09-01T00:38:32.544Z,99.90
2018-09-01T00:41:01.640Z,99.90
2018-09-01T00:43:30.814Z,99.90
2018-09-01T00:46:00.310Z,99.90
2018-09-01T00:48:30.127Z,99.90
2018-09-01T00:51:00.166Z,99.90
2018-09-01T00:53:29.367Z,99.90
2018-09-01T00:55:58.936Z,99.90
2018-09-01T00:58:28.102Z,99.90
2018-09-01T01:00:57.300Z,99.90
2018-09-01T01:03:26.704Z,99.90
2018-09-01T01:05:55.875Z,99.90
2018-09-01T01:08:25.068Z,99.90
2018-09-01T01:10:54.245Z,99.90
2018-09-01T01:13:23.400Z,99.90
2018-09-01T01:15:52.545Z,99.90
2018-09-01T01:18:21.973Z,99.90
2018-09-01T01:20:51.149Z,99.90
2018-09-01T01:23:20.427Z,99.90
2018-09-01T01:25:49.703Z,99.90
2018-09-01T01:28:18.908Z,99.90
2018-09-01T01:30:48.111Z,99.90
2018-09-01T01:33:17.308Z,99.90
2018-09-01T01:35:46.513Z,99.90
2018-09-01T01:38:15.700Z,99.90
2018-09-01T01:40:44.900Z,99.90
2018-09-01T01:43:14.097Z,99.90
2018-09-01T01:45:43.286Z,99.90
2018-09-01T01:48:12.495Z,99.90
2018-09-01T01:50:41.735Z,99.90
2018-09-01T01:53:11.041Z,99.90
2018-09-01T01:55:40.274Z,99.90
2018-09-01T01:58:09.476Z,99.90
2018-09-01T02:00:38.700Z,99.90
2018-09-01T02:03:08.190Z,99.90
2018-09-01T02:05:37.385Z,99.90
2018-09-01T02:08:06.674Z,99.90
2018-09-01T02:10:36.068Z,99.90
2018-09-01T02:13:05.283Z,99.90
2018-09-01T02:15:35.064Z,99.90
2018-09-01T02:18:04.195Z,99.90
2018-09-01T02:20:33.428Z,99.90
2018-09-01T02:23:02.665Z,99.90
2018-09-01T02:25:32.382Z,99.90
2018-09-01T02:28:02.416Z,99.90
2018-09-01T02:30:31.624Z,99.90
2018-09-01T02:33:00.828Z,99.90
2018-09-01T02:35:30.065Z,99.90
2018-09-01T02:37:59.212Z,99.90
2018-09-01T02:40:28.610Z,99.90
2018-09-01T02:42:58.356Z,99.90
2018-09-01T02:45:27.607Z,99.90
2018-09-01T02:47:56.752Z,99.90
2018-09-01T02:50:26.053Z,99.90
2018-09-01T02:52:55.259Z,99.90
2018-09-01T02:55:24.440Z,99.90
2018-09-01T02:57:53.639Z,99.90
2018-09-01T03:00:28.208Z,99.90
2018-09-01T03:02:57.453Z,99.90
2018-09-01T03:05:26.572Z,99.90
2018-09-01T03:07:55.871Z,99.90
2018-09-01T03:10:25.160Z,99.90
2018-09-01T03:12:54.416Z,99.90
2018-09-01T03:15:23.853Z,99.90
2018-09-01T03:17:53.151Z,99.90
2018-09-01T03:20:22.383Z,99.90
2018-09-01T03:22:51.580Z,99.90
2018-09-01T03:25:20.810Z,99.90
2018-09-01T03:27:50.225Z,99.90
2018-09-01T03:30:19.462Z,99.90
2018-09-01T03:32:48.759Z,99.90
2018-09-01T03:35:17.960Z,99.90
2018-09-01T03:37:47.079Z,99.90
2018-09-01T03:40:16.323Z,99.90
2018-09-01T03:42:45.541Z,99.90
2018-09-01T03:45:14.840Z,99.90
2018-09-01T03:47:44.008Z,99.90
2018-09-01T03:50:13.180Z,99.90
2018-09-01T03:52:42.444Z,99.90
2018-09-01T03:55:11.713Z,99.90
2018-09-01T03:57:40.931Z,99.90
2018-09-01T04:00:11.090Z,99.90
2018-09-01T04:02:40.360Z,99.90
2018-09-01T04:05:09.553Z,99.90
2018-09-01T04:07:38.677Z,99.90
2018-09-01T04:10:08.084Z,99.90
2018-09-01T04:12:37.278Z,99.90
2018-09-01T04:15:07.247Z,99.90
2018-09-01T04:17:36.533Z,99.90
2018-09-01T04:20:05.883Z,99.90
2018-09-01T04:22:35.074Z,99.90
2018-09-01T04:25:04.589Z,99.90
2018-09-01T04:27:33.868Z,99.90
2018-09-01T04:30:02.991Z,99.90
2018-09-01T04:32:32.378Z,99.90
2018-09-01T04:35:02.167Z,99.90
2018-09-01T04:37:31.406Z,99.90
2018-09-01T04:40:00.584Z,99.90
2018-09-01T04:42:30.418Z,99.90
2018-09-01T04:44:59.714Z,99.90
2018-09-01T04:47:28.901Z,99.90
2018-09-01T04:49:58.076Z,99.90
2018-09-01T04:52:27.721Z,99.90
2018-09-01T04:54:57.018Z,99.90
2018-09-01T04:57:26.205Z,99.90
2018-09-01T04:59:55.349Z,99.90
2018-09-01T05:02:24.822Z,99.90
2018-09-01T05:04:54.434Z,99.90
2018-09-01T05:07:23.717Z,99.90
2018-09-01T05:09:52.916Z,99.90
2018-09-01T05:12:22.081Z,99.90
2018-09-01T05:14:51.354Z,99.90
2018-09-01T05:17:20.580Z,99.90
2018-09-01T05:19:49.785Z,99.90
2018-09-01T05:22:19.007Z,99.90
2018-09-01T05:24:48.234Z,99.90
2018-09-01T05:27:17.520Z,99.90
2018-09-01T05:29:46.626Z,99.90
2018-09-01T05:32:15.906Z,99.90
2018-09-01T05:34:45.104Z,99.90
2018-09-01T05:37:14.221Z,99.90
2018-09-01T05:39:43.609Z,99.90
2018-09-01T05:42:12.810Z,99.90
2018-09-01T05:44:41.985Z,99.90
2018-09-01T05:47:11.171Z,99.90
2018-09-01T05:49:40.409Z,99.90
2018-09-01T05:52:10.324Z,99.90
2018-09-01T05:54:39.552Z,99.90
2018-09-01T05:57:08.905Z,99.90
2018-09-01T05:59:38.171Z,99.90
2018-09-01T06:02:07.582Z,99.90
2018-09-01T06:04:37.019Z,99.90
2018-09-01T06:07:06.352Z,99.90
2018-09-01T06:09:35.475Z,99.90
2018-09-01T06:12:04.778Z,99.90
2018-09-01T06:14:33.964Z,99.90
2018-09-01T06:17:03.247Z,99.90
2018-09-01T06:19:32.424Z,99.90
2018-09-01T06:22:01.642Z,99.90
2018-09-01T06:24:30.812Z,99.90
2018-09-01T06:27:02.125Z,99.90
2018-09-01T06:29:31.368Z,99.90
2018-09-01T06:32:04.600Z,99.90
2018-09-01T06:34:33.778Z,99.90
2018-09-01T06:37:02.942Z,99.90
2018-09-01T06:39:32.176Z,99.90
2018-09-01T06:42:01.322Z,99.90
2018-09-01T06:44:30.555Z,99.90
2018-09-01T06:46:59.742Z,99.90
2018-09-01T06:49:28.976Z,99.90
2018-09-01T06:51:58.260Z,99.90
2018-09-01T06:54:27.416Z,99.90
2018-09-01T06:56:56.609Z,99.90
2018-09-01T06:59:26.005Z,99.90
2018-09-01T07:01:55.252Z,99.90
2018-09-01T07:04:24.454Z,99.90
2018-09-01T07:06:53.668Z,99.90
2018-09-01T07:09:23.422Z,99.90
2018-09-01T07:11:52.649Z,99.90
2018-09-01T07:14:21.970Z,99.90
2018-09-01T07:16:51.168Z,99.90
2018-09-01T07:19:20.329Z,99.90
2018-09-01T07:21:49.556Z,99.90
2018-09-01T07:24:19.087Z,99.90
2018-09-01T07:26:48.246Z,99.90
2018-09-01T07:29:17.435Z,99.90
2018-09-01T07:31:46.668Z,99.90
2018-09-01T07:34:15.848Z,99.90
2018-09-01T07:36:45.164Z,99.90
2018-09-01T07:39:14.358Z,99.90
2018-09-01T07:41:43.481Z,99.90
2018-09-01T07:44:12.821Z,99.90
2018-09-01T07:46:42.127Z,99.90
2018-09-01T07:49:11.341Z,99.90
2018-09-01T07:51:40.549Z,99.90
2018-09-01T07:54:09.734Z,99.90
2018-09-01T07:56:38.953Z,99.90
2018-09-01T07:59:08.373Z,99.90
2018-09-01T08:01:37.556Z,99.90
2018-09-01T08:04:06.728Z,99.90
2018-09-01T08:06:40.593Z,99.90
2018-09-01T08:09:11.880Z,99.90
2018-09-01T08:11:41.191Z,99.90
2018-09-01T08:14:10.495Z,99.90
2018-09-01T08:16:39.595Z,99.90
2018-09-01T08:19:08.817Z,99.90
2018-09-01T08:21:38.304Z,99.90
2018-09-01T08:24:07.542Z,99.90
2018-09-01T08:26:36.783Z,99.90
2018-09-01T08:29:06.069Z,97.70
2018-09-01T08:31:35.277Z,99.90
2018-09-01T08:34:04.473Z,99.10
2018-09-01T08:36:33.834Z,99.90
2018-09-01T08:39:03.131Z,98.30
2018-09-01T08:41:32.292Z,95.50
2018-09-01T08:44:02.304Z,97.80
2018-09-01T08:46:31.521Z,96.10
2018-09-01T08:49:00.739Z,95.70
2018-09-01T08:51:31.030Z,97.30
2018-09-01T08:54:00.204Z,97.20
2018-09-01T08:56:29.318Z,98.60
2018-09-01T08:58:58.656Z,96.10
2018-09-01T09:01:28.433Z,95.50
2018-09-01T09:03:57.752Z,95.70
2018-09-01T09:06:27.067Z,94.70
2018-09-01T09:08:56.416Z,97.70
2018-09-01T09:11:25.671Z,95.00
2018-09-01T09:13:55.238Z,94.50
2018-09-01T09:16:24.458Z,95.20
2018-09-01T09:18:53.759Z,94.80
2018-09-01T09:21:22.952Z,96.10
2018-09-01T09:23:52.160Z,98.30
2018-09-01T09:26:21.476Z,94.90
2018-09-01T09:28:50.845Z,97.40
2018-09-01T09:31:20.185Z,97.10
2018-09-01T09:33:49.284Z,94.30
2018-09-01T09:36:18.794Z,95.00
2018-09-01T09:38:48.051Z,93.70
2018-09-01T09:41:17.346Z,91.50
2018-09-01T09:43:46.597Z,90.40
2018-09-01T09:46:15.785Z,93.00
2018-09-01T09:48:44.993Z,90.70
2018-09-01T09:51:14.377Z,92.60
2018-09-01T09:53:43.955Z,93.80
2018-09-01T09:56:13.302Z,97.50
2018-09-01T09:58:43.359Z,93.30
2018-09-01T10:01:17.975Z,90.70
2018-09-01T10:03:47.268Z,90.50
2018-09-01T10:06:16.399Z,91.90
2018-09-01T10:08:45.647Z,94.10
2018-09-01T10:11:14.851Z,94.80
2018-09-01T10:13:44.122Z,95.30
2018-09-01T10:16:13.324Z,91.70
2018-09-01T10:18:42.486Z,90.70
2018-09-01T10:21:11.704Z,91.00
2018-09-01T10:23:40.905Z,91.70
2018-09-01T10:26:10.024Z,86.40
2018-09-01T10:28:39.263Z,90.60
2018-09-01T10:31:08.792Z,90.20
2018-09-01T10:33:38.111Z,93.10
2018-09-01T10:36:07.353Z,90.10
2018-09-01T10:38:36.688Z,91.00
2018-09-01T10:41:06.178Z,93.90
2018-09-01T10:43:35.404Z,94.90
2018-09-01T10:46:04.876Z,88.80
2018-09-01T10:48:34.085Z,87.80
2018-09-01T10:51:03.446Z,91.10
2018-09-01T10:53:32.622Z,90.40
2018-09-01T10:56:01.728Z,94.20
2018-09-01T10:58:31.029Z,93.20
2018-09-01T11:01:00.259Z,93.60
2018-09-01T11:03:29.365Z,93.30
2018-09-01T11:05:58.857Z,90.30
2018-09-01T11:08:28.043Z,91.20
2018-09-01T11:10:57.223Z,87.90
2018-09-01T11:13:26.562Z,82.80
2018-09-01T11:15:55.928Z,89.30
2018-09-01T11:18:25.234Z,91.80
2018-09-01T11:20:54.782Z,90.80
2018-09-01T11:23:23.884Z,91.40
2018-09-01T11:25:53.364Z,90.20
2018-09-01T11:28:22.758Z,84.50
2018-09-01T11:30:52.406Z,88.10
2018-09-01T11:33:21.628Z,89.10
2018-09-01T11:35:50.888Z,88.30
2018-09-01T11:38:20.732Z,84.60
2018-09-01T11:40:50.205Z,84.20
2018-09-01T11:43:19.451Z,84.70
2018-09-01T11:45:48.532Z,87.50
2018-09-01T11:48:17.693Z,86.20
2018-09-01T11:50:46.828Z,91.30
2018-09-01T11:53:16.146Z,86.50
2018-09-01T11:55:45.768Z,91.20
2018-09-01T11:58:14.977Z,90.00
2018-09-01T12:00:44.198Z,91.10
2018-09-01T12:03:13.372Z,83.70
2018-09-01T12:05:42.693Z,88.90
2018-09-01T12:08:11.803Z,90.30
2018-09-01T12:10:41.117Z,90.50
2018-09-01T12:13:10.327Z,86.90
2018-09-01T12:15:39.522Z,84.70
2018-09-01T12:18:09.516Z,88.90
2018-09-01T12:20:38.688Z,88.20
2018-09-01T12:23:07.935Z,88.70
2018-09-01T12:25:37.296Z,81.60
2018-09-01T12:28:06.652Z,83.30
2018-09-01T12:30:36.096Z,82.60
2018-09-01T12:33:05.422Z,82.10
2018-09-01T12:35:35.143Z,75.80
2018-09-01T12:38:05.381Z,76.80
2018-09-01T12:40:35.258Z,82.70
2018-09-01T12:43:04.745Z,87.80
2018-09-01T12:45:33.987Z,90.60
2018-09-01T12:48:03.290Z,91.20
2018-09-01T12:50:32.517Z,91.40
2018-09-01T12:53:01.768Z,89.80
2018-09-01T12:55:30.979Z,90.20
2018-09-01T12:58:00.797Z,91.00
2018-09-01T13:00:29.959Z,91.00
2018-09-01T13:02:59.187Z,89.00
2018-09-01T13:05:28.845Z,87.90
2018-09-01T13:07:58.313Z,84.10
2018-09-01T13:10:27.506Z,84.20
2018-09-01T13:12:56.735Z,88.20
2018-09-01T13:15:26.003Z,80.50
2018-09-01T13:17:55.372Z,80.50
2018-09-01T13:20:24.533Z,81.00
2018-09-01T13:22:53.677Z,84.00
2018-09-01T13:25:22.982Z,83.60
2018-09-01T13:27:52.249Z,86.70
2018-09-01T13:30:21.533Z,83.60
2018-09-01T13:32:50.646Z,81.60
2018-09-01T13:35:19.800Z,90.90
2018-09-01T13:37:49.262Z,88.90
2018-09-01T13:40:18.635Z,85.30
2018-09-01T13:42:47.845Z,87.60
2018-09-01T13:45:17.244Z,89.80
2018-09-01T13:47:47.207Z,91.50
2018-09-01T13:50:16.608Z,87.50
2018-09-01T13:52:45.738Z,86.00
2018-09-01T13:55:15.167Z,86.70
2018-09-01T13:57:45.318Z,91.90
2018-09-01T14:00:15.172Z,90.30
2018-09-01T14:02:44.877Z,87.20
2018-09-01T14:05:14.060Z,91.00
2018-09-01T14:07:44.981Z,87.90
2018-09-01T14:10:14.204Z,88.30
2018-09-01T14:12:43.914Z,85.10
2018-09-01T14:15:13.279Z,82.60
2018-09-01T14:17:42.497Z,88.10
2018-09-01T14:20:11.793Z,84.00
2018-09-01T14:22:41.776Z,79.40
2018-09-01T14:25:11.093Z,86.40
2018-09-01T14:27:40.266Z,88.30
2018-09-01T14:30:10.002Z,90.00
2018-09-01T14:32:39.320Z,84.90
2018-09-01T14:35:09.849Z,88.30
2018-09-01T14:37:39.257Z,82.90
2018-09-01T14:40:08.395Z,88.40
2018-09-01T14:42:37.604Z,82.10
2018-09-01T14:45:06.894Z,83.70
2018-09-01T14:47:36.449Z,80.80
2018-09-01T14:50:05.880Z,84.80
2018-09-01T14:52:35.376Z,86.00
2018-09-01T14:55:04.873Z,88.60
2018-09-01T14:57:33.988Z,90.20
2018-09-01T15:00:03.174Z,91.70
2018-09-01T15:02:32.387Z,91.90
2018-09-01T15:05:01.655Z,91.50
2018-09-01T15:07:31.627Z,92.00
2018-09-01T15:10:00.816Z,92.40
2018-09-01T15:12:30.111Z,92.40
2018-09-01T15:14:59.253Z,92.30
2018-09-01T15:17:28.508Z,92.40
2018-09-01T15:19:57.689Z,93.00
2018-09-01T15:22:26.837Z,92.40
2018-09-01T15:24:56.030Z,91.10
2018-09-01T15:27:25.288Z,89.10
2018-09-01T15:29:54.435Z,93.40
2018-09-01T15:32:23.751Z,92.20
2018-09-01T15:34:52.897Z,92.20
2018-09-01T15:37:22.096Z,92.20
2018-09-01T15:39:51.500Z,91.70
2018-09-01T15:42:20.691Z,90.50
2018-09-01T15:44:50.202Z,92.70
2018-09-01T15:47:19.368Z,95.10
2018-09-01T15:49:49.359Z,97.30
2018-09-01T15:52:18.662Z,97.00
2018-09-01T15:54:47.880Z,98.00
2018-09-01T15:57:17.029Z,99.20
2018-09-01T15:59:46.298Z,99.90
2018-09-01T16:02:15.463Z,99.90
2018-09-01T16:04:44.691Z,99.90
2018-09-01T16:07:13.853Z,99.90
2018-09-01T16:09:43.007Z,99.90
2018-09-01T16:12:12.213Z,99.90
2018-09-01T16:14:41.494Z,99.90
2018-09-01T16:17:10.692Z,99.90
2018-09-01T16:19:39.890Z,99.90
2018-09-01T16:22:09.181Z,99.90
2018-09-01T16:24:38.427Z,99.90
2018-09-01T16:27:07.598Z,99.90
2018-09-01T16:29:36.808Z,99.90
2018-09-01T16:32:06.492Z,99.90
2018-09-01T16:34:35.978Z,99.90
2018-09-01T16:37:05.688Z,99.90
2018-09-01T16:39:35.034Z,99.90
2018-09-01T16:42:04.204Z,99.90
2018-09-01T16:44:33.990Z,99.90
2018-09-01T16:47:03.308Z,99.90
2018-09-01T16:49:32.604Z,99.90
2018-09-01T16:52:01.939Z,99.90
2018-09-01T16:54:31.249Z,99.90
2018-09-01T16:57:00.524Z,99.90
2018-09-01T16:59:29.712Z,99.90
2018-09-01T17:01:59.132Z,99.90
2018-09-01T17:04:28.578Z,99.90
2018-09-01T17:06:57.959Z,99.90
2018-09-01T17:09:27.254Z,99.90
2018-09-01T17:11:56.781Z,99.90
2018-09-01T17:14:26.019Z,99.90
2018-09-01T17:16:55.866Z,99.90
2018-09-01T17:19:25.212Z,99.90
2018-09-01T17:21:54.560Z,99.90
2018-09-01T17:24:24.325Z,99.90
2018-09-01T17:26:53.731Z,99.90
2018-09-01T17:29:23.913Z,99.90
2018-09-01T17:31:53.189Z,99.90
2018-09-01T17:34:22.398Z,99.90
2018-09-01T17:36:51.720Z,99.90
2018-09-01T17:39:20.890Z,99.90
2018-09-01T17:41:50.172Z,99.90
2018-09-01T17:44:19.445Z,99.90
2018-09-01T17:46:48.565Z,99.90
2018-09-01T17:49:17.754Z,99.90
2018-09-01T17:51:46.899Z,99.90
2018-09-01T17:54:16.072Z,99.90
2018-09-01T17:56:45.280Z,99.90
2018-09-01T17:59:14.791Z,99.90
2018-09-01T18:01:44.024Z,99.90
2018-09-01T18:04:13.160Z,99.90
2018-09-01T18:06:42.392Z,99.90
2018-09-01T18:09:11.552Z,99.90
2018-09-01T18:11:40.741Z,99.90
2018-09-01T18:14:10.222Z,99.90
2018-09-01T18:16:39.563Z,99.90
2018-09-01T18:19:09.007Z,99.90
2018-09-01T18:21:38.411Z,99.90
2018-09-01T18:24:07.825Z,99.90
2018-09-01T18:26:37.038Z,99.90
2018-09-01T18:29:06.255Z,99.90
2018-09-01T18:31:35.494Z,99.90
2018-09-01T18:34:05.546Z,99.90
2018-09-01T18:36:34.908Z,99.90
2018-09-01T18:39:05.182Z,99.90
2018-09-01T18:41:34.396Z,99.90
2018-09-01T18:44:03.528Z,99.90
2018-09-01T18:46:33.355Z,99.90
2018-09-01T18:49:03.357Z,99.90
2018-09-01T18:51:32.558Z,99.90
2018-09-01T18:54:01.796Z,99.90
2018-09-01T18:56:31.184Z,99.90
2018-09-01T18:59:00.336Z,99.90
2018-09-01T19:01:29.658Z,99.90
2018-09-01T19:03:58.838Z,99.90
2018-09-01T19:06:28.054Z,99.90
2018-09-01T19:08:57.252Z,99.90
2018-09-01T19:11:26.488Z,99.90
2018-09-01T19:13:55.928Z,99.90
2018-09-01T19:16:25.048Z,99.90
2018-09-01T19:18:54.260Z,99.90
2018-09-01T19:21:23.505Z,99.90
2018-09-01T19:23:52.854Z,99.90
2018-09-01T19:26:22.174Z,99.90
2018-09-01T19:28:51.433Z,99.90
2018-09-01T19:31:21.431Z,99.90
2018-09-01T19:33:50.836Z,99.90
2018-09-01T19:36:20.051Z,99.90
2018-09-01T19:38:49.333Z,99.90
2018-09-01T19:41:18.715Z,99.90
2018-09-01T19:43:47.894Z,99.90
2018-09-01T19:46:17.179Z,99.90
2018-09-01T19:48:46.539Z,99.90
2018-09-01T19:51:16.013Z,99.90
2018-09-01T19:53:45.189Z,99.90
2018-09-01T19:56:14.801Z,99.90
2018-09-01T19:58:44.427Z,99.90
2018-09-01T20:01:13.718Z,99.90
2018-09-01T20:03:43.675Z,99.90
2018-09-01T20:06:13.153Z,99.90
2018-09-01T20:08:43.719Z,99.90
2018-09-01T20:11:13.247Z,99.90
2018-09-01T20:13:42.419Z,99.90
2018-09-01T20:16:11.592Z,99.90
2018-09-01T20:18:40.950Z,99.90
2018-09-01T20:21:10.165Z,99.90
2018-09-01T20:23:39.356Z,99.90
2018-09-01T20:26:08.563Z,99.90
2018-09-01T20:28:37.709Z,99.90
2018-09-01T20:31:07.028Z,99.90
2018-09-01T20:33:36.227Z,99.90
2018-09-01T20:36:09.731Z,99.90
2018-09-01T20:38:39.213Z,99.90
2018-09-01T20:41:08.366Z,99.90
2018-09-01T20:43:37.546Z,99.90
2018-09-01T20:46:07.234Z,99.90
2018-09-01T20:48:36.473Z,99.90
2018-09-01T20:51:06.005Z,99.90
2018-09-01T20:53:35.282Z,99.90
2018-09-01T20:56:05.311Z,99.90
2018-09-01T20:58:35.344Z,99.90
2018-09-01T21:01:04.505Z,99.90
2018-09-01T21:03:33.632Z,99.90
2018-09-01T21:06:03.588Z,99.90
2018-09-01T21:08:33.234Z,99.90
2018-09-01T21:11:02.430Z,99.90
2018-09-01T21:13:31.635Z,99.90
2018-09-01T21:16:01.980Z,99.90
2018-09-01T21:18:31.254Z,99.90
2018-09-01T21:21:00.445Z,99.90
2018-09-01T21:23:30.681Z,99.90
2018-09-01T21:26:00.070Z,99.90
2018-09-01T21:28:29.245Z,99.90
2018-09-01T21:30:58.588Z,99.90
2018-09-01T21:33:28.229Z,99.90
2018-09-01T21:35:57.499Z,99.90
2018-09-01T21:38:26.674Z,99.90
2018-09-01T21:40:55.884Z,99.90
2018-09-01T21:43:25.297Z,99.90
2018-09-01T21:45:54.492Z,99.90
2018-09-01T21:48:23.664Z,99.90
2018-09-01T21:50:52.880Z,99.90
2018-09-01T21:53:22.080Z,99.90
2018-09-01T21:55:51.226Z,99.90
2018-09-01T21:58:20.484Z,99.90
2018-09-01T22:00:51.025Z,99.90
2018-09-01T22:03:21.646Z,99.90
2018-09-01T22:05:50.879Z,99.90
2018-09-01T22:08:21.001Z,99.90
2018-09-01T22:10:50.395Z,99.90
2018-09-01T22:13:19.701Z,99.90
2018-09-01T22:15:48.850Z,99.90
2018-09-01T22:18:18.142Z,99.90
2018-09-01T22:20:47.363Z,99.90
2018-09-01T22:23:16.652Z,99.90
2018-09-01T22:25:45.869Z,99.90
2018-09-01T22:28:15.080Z,99.90
2018-09-01T22:30:44.245Z,99.90
2018-09-01T22:33:13.458Z,99.90
2018-09-01T22:35:42.685Z,99.90
2018-09-01T22:38:11.918Z,99.90
2018-09-01T22:40:41.165Z,99.90
2018-09-01T22:43:10.392Z,99.90
2018-09-01T22:45:39.542Z,99.90
2018-09-01T22:48:09.292Z,99.90
2018-09-01T22:50:38.491Z,99.90
2018-09-01T22:53:07.829Z,99.90
2018-09-01T22:55:37.614Z,99.90
2018-09-01T22:58:06.863Z,99.90
2018-09-01T23:00:36.053Z,99.90
2018-09-01T23:03:05.420Z,99.90
2018-09-01T23:05:34.678Z,99.90
2018-09-01T23:08:03.875Z,99.90
2018-09-01T23:10:33.195Z,99.90
2018-09-01T23:13:02.304Z,99.90
2018-09-01T23:15:31.608Z,99.90
2018-09-01T23:18:01.066Z,99.90
2018-09-01T23:20:30.280Z,99.90
2018-09-01T23:22:59.340Z,99.90
2018-09-01T23:25:28.673Z,99.90
2018-09-01T23:27:57.874Z,99.90
2018-09-01T23:30:27.111Z,99.90
2018-09-01T23:32:56.972Z,99.90
2018-09-01T23:35:26.971Z,99.90
2018-09-01T23:37:56.239Z,99.90
2018-09-01T23:40:25.584Z,99.90
2018-09-01T23:42:54.805Z,99.90
2018-09-01T23:45:24.005Z,99.90
2018-09-01T23:47:53.184Z,99.90
2018-09-01T23:50:22.388Z,99.90
2018-09-01T23:52:51.597Z,99.90
2018-09-01T23:55:20.802Z,99.90
2018-09-01T23:57:50.100Z,99.90
